Time;durP1;ratioP1;P1;durP2;ratioP2;P2;SDS_P1;SDS_P2;PMS_P1;PMS_P2;Temp;Humidity;BMP_temperature;BMP_pressure;BME280_temperature;BME280_humidity;BME280_pressure;Samples;Min_cycle;Max_cycle;Signal;HPM_P1;HPM_P2
2022/01/26 00:07:20;;;;;;;114.03;53.47;;;5.80;90.80;;;;;;5038327;28;20124;-76
2022/01/26 00:09:45;;;;;;;109.90;51.90;;;5.70;90.80;;;;;;5041523;28;20064;-75
2022/01/26 00:12:11;;;;;;;110.63;52.05;;;5.70;90.90;;;;;;5038296;28;20041;-73
2022/01/26 00:14:41;;;;;;;109.70;52.00;;;5.60;90.90;;;;;;5046275;28;20052;-75
2022/01/26 00:17:07;;;;;;;107.68;51.60;;;5.60;91.10;;;;;;5039511;28;20029;-75
2022/01/26 00:19:49;;;;;;;109.00;50.25;;;5.60;91.10;;;;;;5046953;28;20036;-75
2022/01/26 00:22:33;;;;;;;109.72;51.45;;;5.60;91.10;;;;;;5040343;28;20037;-76
2022/01/26 00:27:48;;;;;;;116.25;51.72;;;5.50;91.00;;;;;;5052091;28;20039;-76
2022/01/26 00:31:59;;;;;;;114.05;51.50;;;5.40;90.80;;;;;;5052701;28;20036;-77
2022/01/26 00:41:04;;;;;;;104.65;49.20;;;5.40;91.00;;;;;;5051906;28;20066;-77
2022/01/26 00:43:30;;;;;;;113.80;52.53;;;5.40;91.00;;;;;;5052455;28;20040;-77
2022/01/26 00:45:57;;;;;;;117.25;54.88;;;5.50;91.00;;;;;;5052400;28;20025;-76
2022/01/26 00:48:24;;;;;;;111.68;52.58;;;5.40;90.90;;;;;;5052034;28;20460;-76
2022/01/26 00:50:52;;;;;;;114.13;53.60;;;5.30;91.10;;;;;;5052308;28;20043;-76
2022/01/26 00:53:22;;;;;;;113.18;51.05;;;5.30;91.20;;;;;;5051806;28;20037;-76
2022/01/26 00:55:48;;;;;;;111.85;50.80;;;5.30;91.30;;;;;;5052274;28;20108;-76
2022/01/26 00:58:14;;;;;;;107.82;50.15;;;5.20;91.60;;;;;;5052095;28;20104;-76
2022/01/26 01:00:39;;;;;;;118.05;53.17;;;5.20;91.40;;;;;;5052094;28;20036;-76
2022/01/26 01:03:05;;;;;;;109.55;50.78;;;5.20;91.30;;;;;;5052705;28;20024;-76
2022/01/26 01:05:44;;;;;;;112.70;50.33;;;5.20;91.40;;;;;;5051854;28;20040;-76
2022/01/26 01:08:15;;;;;;;110.80;48.47;;;5.20;91.50;;;;;;5046391;28;20041;-76
2022/01/26 01:10:44;;;;;;;113.07;51.00;;;5.20;91.30;;;;;;5060662;28;20033;-75
2022/01/26 01:13:18;;;;;;;110.35;49.65;;;5.10;91.30;;;;;;5065783;28;20044;-76
2022/01/26 01:15:44;;;;;;;;;;;5.00;91.40;;;;;;5059727;28;20380;-77
2022/01/26 01:18:18;;;;;;;108.75;48.63;;;5.00;91.60;;;;;;5052010;28;19909;-76
2022/01/26 01:23:36;;;;;;;111.47;50.20;;;5.10;91.70;;;;;;5051220;28;20025;-76
2022/01/26 01:28:45;;;;;;;115.43;50.38;;;5.20;91.70;;;;;;5051482;28;20052;-76
2022/01/26 01:31:17;;;;;;;105.50;47.83;;;5.20;91.70;;;;;;5051553;28;20032;-75
2022/01/26 01:33:48;;;;;;;106.93;47.70;;;5.20;91.70;;;;;;5049745;28;20520;-75
2022/01/26 01:36:14;;;;;;;106.88;48.08;;;5.10;91.70;;;;;;5055815;28;20439;-76
2022/01/26 01:38:42;;;;;;;104.85;46.75;;;5.10;91.60;;;;;;5055371;28;20140;-76
2022/01/26 01:41:08;;;;;;;105.22;47.72;;;5.10;91.60;;;;;;5053096;28;20032;-76
2022/01/26 01:43:34;;;;;;;105.97;47.50;;;5.10;91.60;;;;;;5055111;28;20028;-76
2022/01/26 01:46:01;;;;;;;109.63;47.65;;;5.00;91.80;;;;;;5055306;28;20031;-76
2022/01/26 01:48:31;;;;;;;99.88;46.35;;;5.00;91.80;;;;;;5055258;28;20032;-76
2022/01/26 01:51:00;;;;;;;104.00;47.17;;;5.10;91.90;;;;;;5055478;28;20121;-76
2022/01/26 01:53:44;;;;;;;100.45;46.17;;;5.20;91.80;;;;;;5055045;28;20480;-75
2022/01/26 01:56:17;;;;;;;95.65;43.83;;;5.20;91.80;;;;;;5053730;28;20029;-75
2022/01/26 01:58:43;;;;;;;94.50;44.28;;;5.30;91.80;;;;;;5054800;28;20036;-75
2022/01/26 02:01:09;;;;;;;105.65;48.88;;;5.30;91.80;;;;;;5055233;28;20090;-75
2022/01/26 02:03:35;;;;;;;91.10;44.47;;;5.40;91.80;;;;;;5055677;28;20075;-76
2022/01/26 02:06:01;;;;;;;97.53;45.33;;;5.40;91.80;;;;;;5055090;28;20025;-75
2022/01/26 02:08:26;;;;;;;96.60;45.53;;;5.40;91.50;;;;;;5053436;28;20041;-75
2022/01/26 02:10:52;;;;;;;90.28;42.20;;;5.40;91.40;;;;;;5062279;28;20085;-75
2022/01/26 02:15:56;;;;;;;88.72;43.00;;;5.40;91.30;;;;;;5055469;28;20041;-75
2022/01/26 02:18:48;;;;;;;88.13;42.92;;;5.50;91.40;;;;;;5053448;28;20033;-75
2022/01/26 02:56:10;;;;;;;100.47;45.92;;;5.40;91.30;;;;;;5053843;28;20025;-74
2022/01/26 02:59:10;;;;;;;103.55;47.38;;;5.50;91.30;;;;;;5054245;28;20104;-74
2022/01/26 03:01:57;;;;;;;102.40;47.63;;;5.40;91.40;;;;;;5054290;28;20025;-75
2022/01/26 03:09:36;;;;;;;99.38;46.58;;;5.50;91.50;;;;;;5058494;28;20476;-74
2022/01/26 03:12:04;;;;;;;107.45;49.60;;;5.40;91.60;;;;;;5059012;28;20100;-75
2022/01/26 03:17:07;;;;;;;104.03;48.95;;;5.50;91.60;;;;;;5054272;28;20392;-75
2022/01/26 03:33:10;;;;;;;103.93;47.88;;;5.50;91.60;;;;;;5053436;28;20044;-75
2022/01/26 03:38:16;;;;;;;105.80;48.15;;;5.50;91.70;;;;;;5053295;28;20025;-75
2022/01/26 03:40:42;;;;;;;111.35;52.28;;;5.50;91.80;;;;;;5053418;28;20024;-76
2022/01/26 03:43:08;;;;;;;105.55;50.65;;;5.50;91.90;;;;;;5053441;28;20032;-76
2022/01/26 03:45:34;;;;;;;110.30;50.42;;;5.50;91.90;;;;;;5052288;28;20040;-75
2022/01/26 03:48:00;;;;;;;104.90;49.88;;;5.50;92.00;;;;;;5052562;28;20358;-75
2022/01/26 03:50:26;;;;;;;111.28;51.25;;;5.50;92.30;;;;;;5045073;28;20618;-75
2022/01/26 03:52:52;;;;;;;113.43;52.22;;;5.40;92.20;;;;;;5041735;28;20040;-75
2022/01/26 03:55:17;;;;;;;107.43;50.88;;;5.40;92.00;;;;;;5040500;28;20029;-75
2022/01/26 03:57:43;;;;;;;110.15;51.63;;;5.30;92.10;;;;;;5036646;28;20061;-75
2022/01/26 04:00:10;;;;;;;106.30;50.20;;;5.30;92.30;;;;;;5044622;28;20040;-75
2022/01/26 04:02:36;;;;;;;108.40;50.30;;;5.30;92.30;;;;;;5043049;28;20036;-75
2022/01/26 04:05:06;;;;;;;107.78;49.10;;;5.40;92.30;;;;;;5054213;28;20028;-74
2022/01/26 04:07:32;;;;;;;107.68;50.08;;;5.40;92.40;;;;;;5063772;28;20049;-73
2022/01/26 04:10:07;;;;;;;112.75;52.10;;;5.50;92.40;;;;;;5059093;28;20031;-75
2022/01/26 04:12:35;;;;;;;102.97;48.95;;;5.50;92.30;;;;;;5052936;28;20048;-75
2022/01/26 04:15:09;;;;;;;103.07;49.63;;;5.50;92.30;;;;;;5052980;28;20457;-75
2022/01/26 04:17:35;;;;;;;104.68;49.00;;;5.60;92.30;;;;;;5052174;28;20035;-75
2022/01/26 04:20:01;;;;;;;107.90;51.80;;;5.70;92.20;;;;;;5052563;28;20116;-77
2022/01/26 04:22:35;;;;;;;105.45;49.47;;;5.80;92.20;;;;;;5051795;28;20422;-76
2022/01/26 04:25:02;;;;;;;107.05;52.15;;;5.80;92.20;;;;;;5052627;28;20052;-77
2022/01/26 04:27:39;;;;;;;113.13;53.28;;;5.80;92.10;;;;;;5052151;28;20076;-76
2022/01/26 04:30:05;;;;;;;110.85;51.05;;;5.90;92.00;;;;;;5052042;28;20460;-76
2022/01/26 04:32:31;;;;;;;104.10;51.58;;;5.90;92.10;;;;;;5050111;28;20064;-76
2022/01/26 04:34:57;;;;;;;111.65;52.03;;;5.90;92.10;;;;;;5052538;28;20055;-77
2022/01/26 04:39:58;;;;;;;115.18;55.20;;;5.90;91.90;;;;;;5049933;28;20037;-77
2022/01/26 04:45:11;;;;;;;105.30;49.10;;;5.90;91.90;;;;;;5052259;28;20059;-76
2022/01/26 04:47:38;;;;;;;107.82;52.00;;;6.00;91.90;;;;;;5051826;28;20443;-76
2022/01/26 04:50:07;;;;;;;113.00;53.30;;;6.00;92.00;;;;;;5049977;28;20473;-76
2022/01/26 04:52:32;;;;;;;110.68;51.92;;;6.10;92.00;;;;;;5051941;28;20120;-76
2022/01/26 04:54:58;;;;;;;108.05;52.78;;;6.00;91.90;;;;;;5052578;28;20103;-77
2022/01/26 04:57:23;;;;;;;108.55;51.78;;;6.00;91.90;;;;;;5051751;28;20032;-76
2022/01/26 04:59:49;;;;;;;119.35;54.50;;;6.00;91.90;;;;;;5052357;28;20033;-76
2022/01/26 05:02:15;;;;;;;114.68;53.70;;;6.00;92.00;;;;;;5052046;28;20052;-76
2022/01/26 05:04:40;;;;;;;114.43;54.72;;;6.00;92.10;;;;;;5053120;28;20047;-76
2022/01/26 05:07:06;;;;;;;106.65;51.58;;;6.00;92.20;;;;;;5060197;28;20072;-76
2022/01/26 05:09:32;;;;;;;109.38;51.63;;;6.00;92.30;;;;;;5061362;28;20151;-76
2022/01/26 05:11:58;;;;;;;110.97;52.90;;;6.00;92.30;;;;;;5051977;28;20468;-76
2022/01/26 05:14:23;;;;;;;114.38;53.92;;;6.00;92.50;;;;;;5051698;28;20025;-76
2022/01/26 05:16:49;;;;;;;106.75;51.67;;;6.00;92.30;;;;;;5051313;28;20024;-76
2022/01/26 05:19:15;;;;;;;112.82;53.28;;;6.00;92.30;;;;;;5051636;28;20082;-76
2022/01/26 05:21:42;;;;;;;111.57;53.67;;;6.00;92.50;;;;;;5049090;28;20021;-76
2022/01/26 05:24:10;;;;;;;112.95;54.25;;;6.00;92.30;;;;;;5051846;28;20431;-75
2022/01/26 05:26:36;;;;;;;106.47;51.05;;;6.00;92.30;;;;;;5050876;28;20121;-82
2022/01/26 05:29:02;;;;;;;116.57;56.67;;;6.00;92.30;;;;;;5051793;28;20065;-80
2022/01/26 05:31:27;;;;;;;120.80;56.67;;;6.10;92.30;;;;;;5050789;28;20060;-78
2022/01/26 05:33:54;;;;;;;113.80;55.72;;;6.00;92.10;;;;;;5052164;28;20039;-77
2022/01/26 05:36:19;;;;;;;117.25;55.75;;;5.90;92.20;;;;;;5051535;28;20029;-76
2022/01/26 05:38:45;;;;;;;119.55;57.63;;;5.90;92.40;;;;;;5051539;28;20116;-77
2022/01/26 05:41:11;;;;;;;109.18;51.85;;;5.80;92.60;;;;;;5051374;28;20025;-76
2022/01/26 05:43:37;;;;;;;115.22;56.50;;;5.80;92.80;;;;;;5051359;28;20029;-76
2022/01/26 05:46:21;;;;;;;115.68;55.55;;;5.70;92.80;;;;;;5051245;28;20082;-77
2022/01/26 05:48:48;;;;;;;113.40;55.33;;;5.70;93.10;;;;;;5051463;28;20388;-77
2022/01/26 05:51:15;;;;;;;118.10;56.50;;;5.80;93.20;;;;;;5050687;28;20051;-77
2022/01/26 05:53:41;;;;;;;127.13;57.72;;;5.70;93.20;;;;;;5048207;28;20468;-78
2022/01/26 05:56:08;;;;;;;117.28;55.83;;;5.70;93.50;;;;;;5051367;28;20025;-77
2022/01/26 05:58:34;;;;;;;132.77;60.97;;;5.70;93.40;;;;;;5050916;28;20061;-77
2022/01/26 06:01:01;;;;;;;121.78;56.55;;;5.70;93.20;;;;;;5051074;28;20017;-77
2022/01/26 06:03:28;;;;;;;115.40;54.92;;;5.70;93.80;;;;;;5052318;28;20037;-77
2022/01/26 06:05:54;;;;;;;130.60;58.92;;;5.60;93.60;;;;;;5053872;28;20021;-76
2022/01/26 06:08:24;;;;;;;118.70;57.38;;;5.70;93.60;;;;;;5053289;28;20532;-78
2022/01/26 06:10:51;;;;;;;126.82;56.92;;;5.60;93.40;;;;;;5051118;28;20028;-78
2022/01/26 06:13:17;;;;;;;120.95;55.55;;;5.60;93.20;;;;;;5051619;28;20072;-78
2022/01/26 06:15:43;;;;;;;116.18;54.47;;;5.60;93.40;;;;;;5050753;28;20134;-80
2022/01/26 06:18:12;;;;;;;128.85;61.10;;;5.60;93.60;;;;;;5051383;28;20033;-79
2022/01/26 06:20:38;;;;;;;122.03;57.00;;;5.60;93.50;;;;;;5051087;28;20021;-79
2022/01/26 06:23:04;;;;;;;114.43;55.22;;;5.50;93.50;;;;;;5054292;28;20383;-78
2022/01/26 06:25:30;;;;;;;116.35;55.22;;;5.60;93.60;;;;;;5054983;28;20441;-79
2022/01/26 06:27:58;;;;;;;122.90;58.17;;;5.50;93.80;;;;;;5054445;28;20028;-80
2022/01/26 06:30:24;;;;;;;123.88;58.10;;;5.50;93.60;;;;;;5054360;28;20024;-77
2022/01/26 06:32:51;;;;;;;117.97;56.15;;;5.40;93.60;;;;;;5054373;28;20415;-80
2022/01/26 06:35:17;;;;;;;118.07;54.90;;;5.50;93.80;;;;;;5054161;28;20040;-77
2022/01/26 06:37:46;;;;;;;120.25;55.75;;;5.50;94.00;;;;;;5055552;28;20029;-76
2022/01/26 06:40:13;;;;;;;119.57;56.58;;;5.50;94.10;;;;;;5054686;28;20427;-76
2022/01/26 06:42:51;;;;;;;127.65;59.33;;;5.50;94.30;;;;;;5054105;28;20047;-78
2022/01/26 06:45:20;;;;;;;126.65;58.92;;;5.50;94.10;;;;;;5054396;28;20032;-77
2022/01/26 06:50:31;;;;;;;135.57;59.55;;;5.30;94.00;;;;;;5053232;28;20032;-77
2022/01/26 06:52:56;;;;;;;130.52;57.97;;;5.30;94.30;;;;;;5053090;28;20049;-76
2022/01/26 06:55:22;;;;;;;131.20;61.15;;;5.30;94.40;;;;;;5050548;28;20033;-76
2022/01/26 06:57:48;;;;;;;126.95;57.70;;;5.20;94.40;;;;;;5038260;28;20469;-75
2022/01/26 07:00:15;;;;;;;129.60;59.10;;;5.20;94.60;;;;;;5043216;28;20033;-76
2022/01/26 07:02:40;;;;;;;129.68;59.60;;;5.20;94.70;;;;;;5052427;28;20021;-75
2022/01/26 07:05:10;;;;;;;128.45;58.65;;;5.20;94.80;;;;;;5048449;28;20034;-76
2022/01/26 07:07:36;;;;;;;131.00;59.38;;;5.30;94.80;;;;;;5047911;28;20124;-77
2022/01/26 07:10:03;;;;;;;134.70;62.08;;;5.30;94.80;;;;;;5052071;28;20505;-77
2022/01/26 07:12:28;;;;;;;132.82;59.75;;;5.20;94.80;;;;;;5052779;28;20044;-77
2022/01/26 07:23:00;;;;;;;132.73;59.25;;;5.30;95.10;;;;;;5052859;28;20025;-85
2022/01/26 07:25:25;;;;;;;140.15;62.88;;;5.30;95.10;;;;;;5054178;28;20025;-83
2022/01/26 07:27:51;;;;;;;139.52;62.15;;;5.30;95.20;;;;;;5054652;28;20040;-85
2022/01/26 07:30:17;;;;;;;135.90;61.50;;;5.30;95.20;;;;;;5053937;28;20020;-84
2022/01/26 07:32:43;;;;;;;133.30;59.60;;;5.30;95.30;;;;;;5053816;28;20065;-81
2022/01/26 07:35:09;;;;;;;136.45;59.67;;;5.30;95.30;;;;;;5053886;28;20052;-81
2022/01/26 07:37:35;;;;;;;140.90;61.47;;;5.30;95.30;;;;;;5053413;28;20116;-82
2022/01/26 07:40:06;;;;;;;142.23;59.28;;;5.40;95.30;;;;;;5054524;28;20089;-80
2022/01/26 07:42:33;;;;;;;136.00;59.17;;;5.40;95.40;;;;;;5043151;28;20029;-82
2022/01/26 07:45:00;;;;;;;144.05;62.70;;;5.30;95.40;;;;;;5052158;28;20076;-89
2022/01/26 07:47:26;;;;;;;147.68;64.22;;;5.30;95.70;;;;;;5054280;28;20033;-84
2022/01/26 07:49:54;;;;;;;139.20;61.83;;;5.20;95.80;;;;;;5054258;28;20032;-84
2022/01/26 07:52:20;;;;;;;139.63;61.08;;;5.20;95.70;;;;;;5054251;28;20053;-84
2022/01/26 07:54:50;;;;;;;140.35;59.85;;;5.20;96.00;;;;;;5054348;28;20537;-84
2022/01/26 07:57:16;;;;;;;145.05;61.65;;;5.20;96.00;;;;;;5055289;28;20048;-87
2022/01/26 07:59:42;;;;;;;152.20;64.18;;;5.30;96.30;;;;;;5055696;28;20096;-87
2022/01/26 08:02:08;;;;;;;142.75;61.80;;;5.20;96.10;;;;;;5063887;28;20102;-80
2022/01/26 08:04:33;;;;;;;140.43;59.75;;;5.10;96.20;;;;;;5059014;28;20491;-81
2022/01/26 08:06:59;;;;;;;141.88;59.20;;;5.00;96.50;;;;;;5053427;28;20055;-80
2022/01/26 08:09:25;;;;;;;138.98;59.38;;;5.10;96.80;;;;;;5052662;28;20079;-80
2022/01/26 08:11:50;;;;;;;145.80;61.30;;;5.10;96.90;;;;;;5053572;28;20052;-83
2022/01/26 08:14:16;;;;;;;134.05;60.08;;;5.10;96.90;;;;;;5053975;28;20139;-79
2022/01/26 08:16:43;;;;;;;139.48;59.50;;;5.20;97.10;;;;;;5053574;28;20560;-83
2022/01/26 08:19:08;;;;;;;138.98;59.67;;;5.20;97.10;;;;;;5052341;28;20035;-80
2022/01/26 08:21:34;;;;;;;138.95;60.13;;;5.20;97.40;;;;;;5052694;28;20020;-80
2022/01/26 08:24:03;;;;;;;136.23;60.88;;;5.30;97.30;;;;;;5052170;28;20029;-82
2022/01/26 08:26:40;;;;;;;143.43;61.95;;;5.30;97.20;;;;;;5050516;28;20021;-82
2022/01/26 08:29:13;;;;;;;143.45;62.88;;;5.40;97.30;;;;;;5052366;28;20065;-84
2022/01/26 08:31:38;;;;;;;142.68;60.78;;;5.40;97.20;;;;;;5052567;28;20036;-81
2022/01/26 08:34:04;;;;;;;146.25;61.78;;;5.40;97.30;;;;;;5052415;28;20037;-84
2022/01/26 08:36:30;;;;;;;138.48;58.67;;;5.40;97.40;;;;;;5053413;28;20056;-83
2022/01/26 08:38:55;;;;;;;145.77;62.13;;;5.30;97.40;;;;;;5054943;28;20032;-86
2022/01/26 08:41:21;;;;;;;131.20;59.55;;;5.30;97.60;;;;;;5053304;28;20017;-87
2022/01/26 08:43:46;;;;;;;134.27;58.55;;;5.20;97.70;;;;;;5055089;28;20108;-84
2022/01/26 08:46:12;;;;;;;133.45;56.10;;;5.20;97.70;;;;;;5052850;28;20105;-85
2022/01/26 08:48:38;;;;;;;138.38;59.95;;;5.20;98.00;;;;;;5053126;28;20031;-83
2022/01/26 08:51:03;;;;;;;139.13;59.50;;;5.20;98.10;;;;;;5053204;28;20040;-83
2022/01/26 08:53:29;;;;;;;135.30;57.38;;;5.20;98.10;;;;;;5052421;28;20388;-82
2022/01/26 08:55:54;;;;;;;131.95;57.00;;;5.30;98.20;;;;;;5052683;28;20107;-84
2022/01/26 08:58:20;;;;;;;135.05;59.53;;;5.40;98.20;;;;;;5054228;28;20037;-87
2022/01/26 09:00:46;;;;;;;134.10;56.58;;;5.40;98.20;;;;;;5064629;28;20096;-85
2022/01/26 09:03:11;;;;;;;143.07;60.35;;;5.40;98.20;;;;;;5073537;28;20093;-82
2022/01/26 09:05:37;;;;;;;138.20;59.90;;;5.50;98.50;;;;;;5055507;28;20100;-84
2022/01/26 09:08:03;;;;;;;133.85;59.75;;;5.50;98.20;;;;;;5052551;28;20045;-88
2022/01/26 09:10:32;;;;;;;134.43;58.92;;;5.50;98.30;;;;;;5052157;28;20040;-84
2022/01/26 09:12:58;;;;;;;136.18;58.55;;;5.40;98.50;;;;;;5051575;28;20151;-85
2022/01/26 09:15:28;;;;;;;131.05;58.08;;;5.50;98.50;;;;;;5052409;28;20033;-85
2022/01/26 09:17:56;;;;;;;128.43;56.63;;;5.60;98.50;;;;;;5052437;28;20037;-86
2022/01/26 09:20:22;;;;;;;125.75;54.97;;;5.60;98.30;;;;;;5052346;28;20040;-84
2022/01/26 09:22:48;;;;;;;131.25;57.17;;;5.60;98.30;;;;;;5052114;28;20380;-83
2022/01/26 09:25:14;;;;;;;136.88;57.72;;;5.60;98.40;;;;;;5052169;28;20029;-85
2022/01/26 09:27:39;;;;;;;124.80;56.42;;;5.60;98.30;;;;;;5052825;28;20025;-85
2022/01/26 09:30:06;;;;;;;125.28;55.72;;;5.60;98.40;;;;;;5052237;28;20079;-85
2022/01/26 09:32:31;;;;;;;123.68;55.65;;;5.60;98.40;;;;;;5052076;28;20036;-86
2022/01/26 09:34:57;;;;;;;124.55;54.40;;;5.60;98.40;;;;;;5053295;28;20487;-86
2022/01/26 09:37:23;;;;;;;122.85;58.13;;;5.50;98.40;;;;;;5052778;28;20057;-84
2022/01/26 09:39:48;;;;;;;127.15;56.15;;;5.50;98.50;;;;;;5052559;28;20736;-85
2022/01/26 09:42:16;;;;;;;118.75;55.17;;;5.50;98.50;;;;;;5052507;28;20059;-84
2022/01/26 09:44:43;;;;;;;126.75;57.50;;;5.50;98.70;;;;;;5052561;28;20124;-86
2022/01/26 09:47:09;;;;;;;118.65;52.97;;;5.50;98.60;;;;;;5054599;28;20029;-86
2022/01/26 09:49:36;;;;;;;125.38;56.20;;;5.50;98.60;;;;;;5053265;28;20029;-81
2022/01/26 09:52:13;;;;;;;122.70;55.45;;;5.40;98.60;;;;;;5055294;28;20040;-88
2022/01/26 09:54:40;;;;;;;120.18;53.97;;;5.40;98.70;;;;;;5048990;28;20067;-84
2022/01/26 09:57:06;;;;;;;114.85;52.70;;;5.50;98.90;;;;;;5052584;28;20026;-80
2022/01/26 09:59:32;;;;;;;112.47;51.28;;;5.50;98.80;;;;;;5072129;28;20063;-89
2022/01/26 10:01:59;;;;;;;116.00;53.17;;;5.60;98.90;;;;;;5074018;28;20037;-83
2022/01/26 10:04:28;;;;;;;114.63;52.05;;;5.60;98.80;;;;;;5056752;28;20028;-84
2022/01/26 10:07:23;;;;;;;120.72;53.50;;;5.60;98.70;;;;;;5056761;28;20516;-83
2022/01/26 10:10:19;;;;;;;116.47;54.65;;;5.70;98.80;;;;;;5056819;28;20423;-85
2022/01/26 10:15:38;;;;;;;116.38;51.85;;;5.70;98.80;;;;;;5056836;28;20028;-81
2022/01/26 10:18:20;;;;;;;119.90;54.55;;;5.70;98.80;;;;;;5056736;28;20029;-87
2022/01/26 10:20:57;;;;;;;118.30;53.08;;;5.70;98.80;;;;;;5059131;28;20036;-88
2022/01/26 10:23:25;;;;;;;115.72;52.58;;;5.70;98.80;;;;;;5057475;28;20373;-86
2022/01/26 10:26:04;;;;;;;105.63;49.33;;;5.70;98.80;;;;;;5056869;28;20021;-87
2022/01/26 10:28:44;;;;;;;117.60;52.90;;;5.80;98.90;;;;;;5057384;28;20025;-86
2022/01/26 10:31:14;;;;;;;116.97;51.67;;;5.80;98.70;;;;;;5059212;28;20059;-84
2022/01/26 10:33:40;;;;;;;109.43;52.92;;;5.90;98.90;;;;;;5056293;28;20480;-84
2022/01/26 10:36:06;;;;;;;108.85;49.50;;;5.80;98.60;;;;;;5056416;28;20638;-86
2022/01/26 10:38:31;;;;;;;109.57;50.58;;;5.90;98.70;;;;;;5056566;28;20033;-83
2022/01/26 10:41:00;;;;;;;109.53;51.15;;;5.90;98.70;;;;;;5056167;28;20035;-84
2022/01/26 10:43:29;;;;;;;98.78;50.05;;;6.00;98.60;;;;;;5056251;28;20036;-85
2022/01/26 10:45:58;;;;;;;97.82;47.22;;;5.90;98.30;;;;;;5056432;28;20025;-85
2022/01/26 10:49:04;;;;;;;96.35;45.47;;;5.90;98.00;;;;;;5057043;28;20121;-86
2022/01/26 10:54:37;;;;;;;89.78;44.88;;;5.90;97.90;;;;;;5056623;28;20083;-88
2022/01/26 10:57:08;;;;;;;88.13;43.17;;;5.80;97.70;;;;;;5062311;28;20055;-84
2022/01/26 10:59:40;;;;;;;82.22;41.85;;;5.80;97.60;;;;;;5076363;28;20021;-86
2022/01/26 11:02:07;;;;;;;81.55;42.10;;;5.80;97.60;;;;;;5065154;28;20025;-84
2022/01/26 11:04:34;;;;;;;81.90;41.70;;;5.80;97.60;;;;;;5054533;28;20029;-79
2022/01/26 11:07:02;;;;;;;78.25;39.72;;;5.80;97.60;;;;;;5053781;28;20041;-78
2022/01/26 11:09:31;;;;;;;73.93;36.88;;;5.80;97.60;;;;;;5055132;28;20036;-82
2022/01/26 11:12:06;;;;;;;78.72;37.85;;;5.80;97.30;;;;;;5053631;28;20537;-79
2022/01/26 11:14:50;;;;;;;71.50;36.67;;;5.80;97.30;;;;;;5053981;28;20365;-85
2022/01/26 11:17:28;;;;;;;80.22;37.53;;;5.80;97.30;;;;;;5047974;28;20057;-78
2022/01/26 11:19:57;;;;;;;71.30;36.63;;;5.90;97.20;;;;;;5041321;28;20022;-81
2022/01/26 11:22:30;;;;;;;72.43;37.42;;;5.80;97.20;;;;;;5043592;28;20021;-79
2022/01/26 11:25:08;;;;;;;70.10;35.15;;;5.80;97.20;;;;;;5045088;28;20060;-79
2022/01/26 11:27:35;;;;;;;73.88;36.10;;;5.80;97.30;;;;;;5038331;28;20025;-79
2022/01/26 11:30:12;;;;;;;72.35;35.50;;;5.80;97.40;;;;;;5045074;28;20032;-81
2022/01/26 11:32:52;;;;;;;74.70;34.95;;;5.70;97.40;;;;;;5046694;28;20029;-82
2022/01/26 11:35:20;;;;;;;71.63;34.33;;;5.80;97.60;;;;;;5053571;28;20029;-81
2022/01/26 11:37:51;;;;;;;68.80;35.90;;;5.80;97.70;;;;;;5053413;28;20040;-78
2022/01/26 11:46:09;;;;;;;73.78;33.78;;;5.90;97.90;;;;;;5053373;28;20036;-80
2022/01/26 11:48:36;;;;;;;67.25;32.92;;;5.90;97.90;;;;;;5053184;28;20110;-78
2022/01/26 11:51:04;;;;;;;71.53;34.80;;;5.90;97.80;;;;;;5053621;28;20056;-78
2022/01/26 11:53:30;;;;;;;66.95;32.38;;;6.00;97.80;;;;;;5053291;28;20086;-78
2022/01/26 11:56:07;;;;;;;77.55;35.47;;;6.00;97.80;;;;;;5060291;28;20503;-80
2022/01/26 11:58:39;;;;;;;68.80;34.40;;;6.00;97.80;;;;;;5061722;28;20059;-80
2022/01/26 12:03:44;;;;;;;76.07;34.53;;;6.10;97.80;;;;;;5054384;28;20029;-77
2022/01/26 12:06:22;;;;;;;72.32;34.53;;;6.10;97.80;;;;;;5053055;28;20178;-77
2022/01/26 12:08:48;;;;;;;72.40;36.13;;;6.10;97.90;;;;;;5052645;28;20124;-77
2022/01/26 12:11:16;;;;;;;71.20;33.78;;;6.10;97.90;;;;;;5052912;28;20155;-78
2022/01/26 12:13:43;;;;;;;78.50;37.35;;;6.10;98.00;;;;;;5052650;28;20511;-83
2022/01/26 12:16:20;;;;;;;75.05;34.47;;;6.10;97.90;;;;;;5053561;28;20029;-80
2022/01/26 12:19:09;;;;;;;72.45;34.78;;;6.10;97.90;;;;;;5050179;28;20492;-81
2022/01/26 12:36:18;;;;;;;69.30;34.40;;;6.20;97.80;;;;;;5052665;28;20029;-82
2022/01/26 12:38:31;;;;;;;73.40;34.88;;;6.20;97.90;;;;;;5052863;28;20049;-82
2022/01/26 12:43:43;;;;;;;72.53;36.23;;;6.30;98.10;;;;;;5051027;28;20017;-81
2022/01/26 12:46:12;;;;;;;68.20;36.08;;;6.30;98.10;;;;;;5051995;28;20029;-81
2022/01/26 12:48:40;;;;;;;77.40;36.65;;;6.30;98.10;;;;;;5052600;28;20436;-79
2022/01/26 12:51:07;;;;;;;74.18;36.05;;;6.30;98.00;;;;;;5053686;28;20025;-84
2022/01/26 12:53:35;;;;;;;69.35;36.75;;;6.30;98.10;;;;;;5053943;28;20511;-78
2022/01/26 12:56:04;;;;;;;71.90;36.20;;;6.30;98.20;;;;;;5056017;28;20025;-82
2022/01/26 12:58:32;;;;;;;76.72;38.38;;;6.20;98.20;;;;;;5059496;28;20041;-84
2022/01/26 13:01:01;;;;;;;76.15;37.55;;;6.30;98.40;;;;;;5052120;28;20457;-82
2022/01/26 13:03:30;;;;;;;80.50;40.78;;;6.30;98.30;;;;;;5053678;28;20129;-87
2022/01/26 13:06:13;;;;;;;71.85;37.72;;;6.30;98.20;;;;;;5054115;28;20025;-85
2022/01/26 13:08:53;;;;;;;75.27;36.90;;;6.30;98.30;;;;;;5055382;28;20098;-85
2022/01/26 13:11:24;;;;;;;79.00;37.33;;;6.30;98.50;;;;;;5054285;28;20155;-87
2022/01/26 13:14:01;;;;;;;79.47;38.33;;;6.30;98.30;;;;;;5054523;28;20040;-85
2022/01/26 13:16:34;;;;;;;72.72;36.35;;;6.30;98.30;;;;;;5054469;28;20060;-85
2022/01/26 13:19:15;;;;;;;69.82;35.38;;;6.30;98.40;;;;;;5054820;28;20032;-86
2022/01/26 13:24:56;;;;;;;79.82;36.38;;;6.30;98.50;;;;;;5054244;28;20400;-85
2022/01/26 13:27:39;;;;;;;74.03;34.60;;;6.30;98.60;;;;;;5053796;28;20551;-82
2022/01/26 13:30:15;;;;;;;68.63;33.47;;;6.30;98.70;;;;;;5054193;28;20033;-83
2022/01/26 13:35:46;;;;;;;68.57;33.95;;;6.20;98.70;;;;;;5059146;28;20115;-84
2022/01/26 13:38:21;;;;;;;68.57;34.65;;;6.20;99.10;;;;;;5058703;28;20033;-84
2022/01/26 13:54:46;;;;;;;68.88;33.88;;;6.40;99.00;;;;;;5095351;28;20062;-85
2022/01/26 14:00:02;;;;;;;71.55;33.90;;;6.30;98.90;;;;;;5037775;28;20392;-83
2022/01/26 14:02:31;;;;;;;65.03;32.40;;;6.30;98.70;;;;;;5062594;28;20017;-84
2022/01/26 14:04:57;;;;;;;64.68;32.88;;;6.30;98.80;;;;;;5059799;28;20036;-85
2022/01/26 14:07:22;;;;;;;65.85;34.25;;;6.40;98.90;;;;;;5057021;28;20041;-88
2022/01/26 14:09:48;;;;;;;67.35;34.75;;;6.40;98.80;;;;;;5061073;28;20028;-87
2022/01/26 14:12:17;;;;;;;64.43;32.72;;;6.50;98.60;;;;;;5056133;28;20037;-87
2022/01/26 14:14:45;;;;;;;69.60;33.65;;;6.50;98.60;;;;;;5055925;28;20032;-89
2022/01/26 14:17:16;;;;;;;68.75;32.67;;;6.40;98.60;;;;;;5056208;28;20048;-77
2022/01/26 14:27:45;;;;;;;66.78;32.25;;;6.50;98.20;;;;;;5057269;28;20388;-80
2022/01/26 14:54:18;;;;;;;57.58;31.83;;;6.50;98.20;;;;;;5055420;28;20093;-85
2022/01/26 15:42:40;;;;;;;56.33;31.25;;;6.60;99.10;;;;;;5053192;28;20043;-81
2022/01/26 15:50:44;;;;;;;54.63;29.98;;;6.50;98.80;;;;;;5041681;28;20056;-77
2022/01/26 17:13:01;;;;;;;69.93;38.92;;;6.00;99.90;;;;;;5051174;28;20082;-77
2022/01/26 17:55:21;;;;;;;82.63;44.17;;;5.80;99.90;;;;;;5051636;28;20558;-77
2022/01/26 18:46:42;;;;;;;89.57;46.70;;;5.50;99.90;;;;;;5067997;28;20033;-76
2022/01/26 18:49:14;;;;;;;90.68;46.47;;;5.50;99.90;;;;;;5054552;28;20477;-76
2022/01/26 18:52:00;;;;;;;86.78;44.88;;;5.60;99.90;;;;;;5054627;28;20393;-77
2022/01/26 18:54:31;;;;;;;94.65;47.05;;;5.50;99.90;;;;;;5054923;28;20036;-76
2022/01/26 18:57:00;;;;;;;94.90;47.03;;;5.50;99.90;;;;;;5054194;28;20032;-75
2022/01/26 18:59:27;;;;;;;93.35;45.00;;;5.50;99.90;;;;;;5054088;28;20484;-76
2022/01/26 19:01:55;;;;;;;92.25;45.42;;;5.50;99.90;;;;;;5051947;28;20040;-76
2022/01/26 19:04:27;;;;;;;89.95;44.63;;;5.60;99.90;;;;;;5054642;28;20028;-76
2022/01/26 19:06:53;;;;;;;94.35;47.17;;;5.60;99.90;;;;;;5053735;28;20056;-76
2022/01/26 19:09:26;;;;;;;93.10;44.78;;;5.50;99.90;;;;;;5054105;28;20033;-76
2022/01/26 19:11:54;;;;;;;92.57;46.53;;;5.50;99.90;;;;;;5054033;28;20059;-76
2022/01/26 19:14:25;;;;;;;91.10;46.28;;;5.40;99.90;;;;;;5054491;28;20127;-76
2022/01/26 19:16:59;;;;;;;88.15;44.17;;;5.30;99.90;;;;;;5053722;28;20392;-76
2022/01/26 19:19:34;;;;;;;88.70;45.17;;;5.30;99.90;;;;;;5050021;28;20036;-76
2022/01/26 19:26:58;;;;;;;92.70;44.88;;;5.40;99.90;;;;;;5053616;28;20421;-75
2022/01/26 19:29:43;;;;;;;90.75;44.65;;;5.40;99.90;;;;;;5053369;28;20036;-76
2022/01/26 19:51:26;;;;;;;85.53;42.80;;;5.30;99.90;;;;;;5052981;28;20048;-75